Terminal Aerodrome Forecast
Issued by NWS

Home | Current Version | Previous Version | Text Only | Print | Product List | Glossary On
Versions: 1 2 3 4 5 6 7 8 9 10 11 12 13 14
000
FTUS45 KREV 190520
TAFMMH
TAF
KMMH 190520Z 1906/2006 27018G30KT 5SM -SHSN SCT020 BKN030
     FM191600 29015G25KT P6SM VCSH SCT040 BKN060
     FM200300 29010KT P6SM SCT060=

USA.gov is the U.S. government's official web portal to all federal, state and local government web resources and services.